Time;durP1;ratioP1;P1;durP2;ratioP2;P2;SDS_P1;SDS_P2;PMS_P1;PMS_P2;Temp;Humidity;BMP_temperature;BMP_pressure;BME280_temperature;BME280_humidity;BME280_pressure;Samples;Min_cycle;Max_cycle;Signal;HPM_P1;HPM_P2
2022/09/11 00:01:39;;;;;;;15.25;9.90;;;23.00;95.10;;;;;;5063962;28;20195;-77
2022/09/11 00:04:08;;;;;;;14.45;9.25;;;23.00;95.30;;;;;;5067802;28;20218;-77
2022/09/11 00:06:36;;;;;;;17.23;10.70;;;23.00;95.30;;;;;;5066332;28;20233;-76
2022/09/11 00:09:06;;;;;;;18.05;9.95;;;23.00;95.50;;;;;;5066389;28;20276;-77
2022/09/11 00:11:41;;;;;;;15.18;10.27;;;23.00;95.50;;;;;;5066750;28;20186;-77
2022/09/11 00:14:12;;;;;;;17.00;9.70;;;23.00;95.60;;;;;;5068567;28;20190;-77
2022/09/11 00:16:43;;;;;;;17.00;10.05;;;22.90;95.60;;;;;;5068239;28;20218;-77
2022/09/11 00:19:15;;;;;;;20.45;10.77;;;22.90;96.10;;;;;;5068831;28;20187;-77
2022/09/11 00:21:44;;;;;;;17.33;11.25;;;22.90;95.90;;;;;;5066316;28;20221;-77
2022/09/11 00:24:12;;;;;;;21.17;12.05;;;22.80;96.00;;;;;;5067571;28;20202;-76
2022/09/11 00:26:42;;;;;;;22.05;12.02;;;22.80;96.20;;;;;;5064792;28;20252;-77
2022/09/11 00:29:11;;;;;;;21.10;11.75;;;22.80;96.40;;;;;;5064937;28;20206;-77
2022/09/11 00:31:40;;;;;;;22.83;11.88;;;22.80;96.50;;;;;;5065157;28;20285;-77
2022/09/11 00:34:09;;;;;;;21.55;12.32;;;22.80;96.90;;;;;;5061287;28;20503;-76
2022/09/11 00:36:40;;;;;;;18.05;12.60;;;22.80;97.30;;;;;;5061409;28;20190;-77
2022/09/11 00:39:10;;;;;;;22.23;12.43;;;22.70;97.50;;;;;;5058207;28;20190;-77
2022/09/11 00:41:40;;;;;;;19.50;12.25;;;22.70;97.50;;;;;;5057916;28;20225;-77
2022/09/11 00:44:41;;;;;;;20.88;12.52;;;22.70;97.40;;;;;;5059473;28;20591;-77
2022/09/11 00:47:18;;;;;;;20.70;12.82;;;22.70;97.40;;;;;;5067473;28;20218;-76
2022/09/11 00:49:51;;;;;;;22.83;13.57;;;22.70;97.40;;;;;;5066775;28;20206;-77
2022/09/11 00:52:23;;;;;;;23.83;13.77;;;22.70;97.40;;;;;;5066298;28;20281;-78
2022/09/11 00:54:56;;;;;;;22.60;13.18;;;22.70;97.60;;;;;;5066239;28;20248;-78
2022/09/11 00:57:28;;;;;;;23.70;14.68;;;22.70;97.80;;;;;;5066109;28;20286;-77
2022/09/11 00:59:59;;;;;;;25.17;13.07;;;22.60;97.90;;;;;;5065685;28;20194;-79
2022/09/11 01:02:31;;;;;;;23.95;13.88;;;22.60;98.00;;;;;;5065175;28;20286;-77
2022/09/11 01:05:00;;;;;;;22.48;13.82;;;22.60;98.30;;;;;;5066861;28;20187;-77
2022/09/11 01:07:30;;;;;;;25.02;14.50;;;22.50;98.60;;;;;;5062668;28;20298;-75
2022/09/11 01:09:59;;;;;;;23.10;14.18;;;22.50;98.70;;;;;;5069425;28;20725;-77
2022/09/11 01:12:35;;;;;;;26.25;13.80;;;22.50;98.90;;;;;;5066547;28;20217;-78
2022/09/11 01:15:07;;;;;;;23.65;13.95;;;22.50;99.20;;;;;;5066590;28;20194;-76
2022/09/11 01:17:45;;;;;;;23.00;14.35;;;22.50;99.20;;;;;;5063311;28;20617;-76
2022/09/11 01:20:25;;;;;;;24.42;15.00;;;22.50;99.20;;;;;;5068724;28;20440;-77
2022/09/11 01:23:32;;;;;;;20.65;13.88;;;22.50;99.70;;;;;;5061633;28;20255;-76
2022/09/11 01:26:17;;;;;;;21.63;14.13;;;22.50;99.60;;;;;;5024717;28;20190;-76
2022/09/11 01:28:52;;;;;;;25.05;13.52;;;22.40;99.40;;;;;;5058014;28;20225;-77
2022/09/11 01:31:24;;;;;;;20.42;14.27;;;22.40;99.20;;;;;;5064478;28;20653;-76
2022/09/11 01:33:59;;;;;;;20.75;13.07;;;22.40;99.20;;;;;;5062073;28;20193;-77
2022/09/11 01:36:33;;;;;;;24.00;14.48;;;22.40;99.10;;;;;;5064452;28;20209;-77
2022/09/11 01:39:03;;;;;;;24.98;14.25;;;22.40;99.10;;;;;;5065726;28;20383;-76
2022/09/11 01:41:39;;;;;;;20.85;13.60;;;22.40;99.00;;;;;;5066784;28;20630;-76
2022/09/11 01:44:12;;;;;;;19.98;12.95;;;22.40;98.90;;;;;;5068636;28;20214;-77
2022/09/11 01:46:44;;;;;;;20.63;13.38;;;22.40;98.80;;;;;;5064129;28;20652;-78
2022/09/11 01:49:16;;;;;;;22.20;13.65;;;22.40;98.70;;;;;;5060299;28;20206;-77
2022/09/11 01:51:47;;;;;;;23.35;13.95;;;22.40;98.70;;;;;;5064218;28;20186;-76
2022/09/11 01:54:18;;;;;;;25.65;13.60;;;22.40;98.60;;;;;;5067408;28;20222;-76
2022/09/11 01:56:52;;;;;;;24.63;13.95;;;22.40;98.60;;;;;;5067096;28;20248;-77
2022/09/11 01:59:27;;;;;;;21.13;12.38;;;22.40;98.50;;;;;;5060453;28;20185;-77
2022/09/11 02:02:01;;;;;;;21.75;13.50;;;22.40;98.40;;;;;;5061667;28;20217;-76
2022/09/11 02:04:33;;;;;;;21.33;13.05;;;22.40;98.30;;;;;;5067019;28;20194;-77
2022/09/11 02:07:06;;;;;;;23.25;14.45;;;22.30;98.20;;;;;;5064771;28;20201;-77
2022/09/11 02:09:40;;;;;;;20.35;12.45;;;22.40;98.20;;;;;;5065262;28;20206;-76
2022/09/11 02:12:13;;;;;;;21.48;13.13;;;22.30;98.10;;;;;;5068535;28;20556;-77
2022/09/11 02:14:46;;;;;;;20.55;13.50;;;22.30;98.00;;;;;;5066346;28;20214;-76
2022/09/11 02:17:23;;;;;;;23.48;13.48;;;22.30;98.00;;;;;;5064650;28;20217;-78
2022/09/11 02:19:53;;;;;;;20.15;11.80;;;22.30;97.90;;;;;;5068606;28;20194;-79
2022/09/11 02:22:22;;;;;;;21.45;12.65;;;22.30;97.80;;;;;;5064622;28;20210;-76
2022/09/11 02:24:50;;;;;;;24.65;13.50;;;22.30;97.70;;;;;;5061379;28;20248;-76
2022/09/11 02:27:22;;;;;;;22.75;12.30;;;22.30;97.60;;;;;;5057434;28;20723;-78
2022/09/11 02:29:53;;;;;;;19.90;12.93;;;22.30;97.90;;;;;;5057792;28;20303;-78
2022/09/11 02:32:22;;;;;;;22.52;12.57;;;22.20;97.40;;;;;;5066384;28;20273;-78
2022/09/11 02:34:53;;;;;;;16.55;10.77;;;22.20;97.30;;;;;;5056834;28;20219;-76
2022/09/11 02:37:37;;;;;;;18.67;10.65;;;22.20;97.20;;;;;;5061974;28;20214;-79
2022/09/11 02:40:19;;;;;;;21.42;10.55;;;22.20;97.00;;;;;;5060605;28;20195;-77
2022/09/11 02:43:15;;;;;;;17.95;11.07;;;22.20;96.90;;;;;;5063421;28;20680;-78
2022/09/11 02:45:54;;;;;;;17.60;10.13;;;22.10;96.80;;;;;;5067111;28;20190;-78
2022/09/11 02:48:36;;;;;;;16.80;9.20;;;22.10;96.60;;;;;;5063792;28;20190;-79
2022/09/11 02:51:16;;;;;;;17.35;10.02;;;22.10;96.50;;;;;;5069056;28;20260;-78
2022/09/11 02:53:53;;;;;;;14.20;8.82;;;22.10;96.30;;;;;;5065555;28;20186;-78
2022/09/11 02:56:28;;;;;;;14.55;8.10;;;22.00;96.20;;;;;;5068979;28;20198;-79
2022/09/11 02:59:00;;;;;;;18.70;9.25;;;22.00;96.00;;;;;;5064040;28;20190;-78
2022/09/11 03:01:30;;;;;;;13.00;8.90;;;22.00;95.90;;;;;;5067148;28;20240;-78
2022/09/11 03:03:59;;;;;;;13.25;7.60;;;22.00;95.80;;;;;;5068666;28;20214;-79
2022/09/11 03:06:27;;;;;;;15.55;8.05;;;22.00;95.70;;;;;;5070075;28;20186;-77
2022/09/11 03:08:55;;;;;;;12.30;7.80;;;21.90;95.60;;;;;;5062425;28;20201;-78
2022/09/11 03:11:24;;;;;;;16.95;8.73;;;21.90;95.50;;;;;;5069269;28;20195;-78
2022/09/11 03:13:52;;;;;;;16.02;7.93;;;21.90;95.40;;;;;;5064617;28;20340;-77
2022/09/11 03:16:20;;;;;;;12.95;7.97;;;21.80;95.20;;;;;;5072091;28;20187;-77
2022/09/11 03:18:50;;;;;;;13.00;7.75;;;21.80;95.20;;;;;;5068386;28;20186;-78
2022/09/11 03:21:19;;;;;;;13.32;7.82;;;21.80;95.10;;;;;;5072804;28;20194;-77
2022/09/11 03:23:47;;;;;;;12.52;7.40;;;21.80;95.10;;;;;;5064407;28;20253;-77
2022/09/11 03:26:16;;;;;;;16.50;8.70;;;21.80;95.10;;;;;;5069253;28;20187;-77
2022/09/11 03:28:45;;;;;;;10.20;7.18;;;21.70;95.00;;;;;;5064662;28;20225;-77
2022/09/11 03:31:13;;;;;;;13.73;6.90;;;21.70;94.90;;;;;;5068355;28;20275;-77
2022/09/11 03:33:42;;;;;;;12.43;6.78;;;21.70;94.80;;;;;;5070181;28;20681;-77
2022/09/11 03:36:12;;;;;;;12.13;7.40;;;21.70;94.80;;;;;;5071549;28;20265;-78
2022/09/11 03:38:40;;;;;;;12.13;7.05;;;21.70;94.70;;;;;;5068932;28;20300;-77
2022/09/11 03:41:09;;;;;;;12.32;7.43;;;21.70;94.60;;;;;;5066028;28;20289;-76
2022/09/11 03:43:37;;;;;;;12.23;6.97;;;21.60;94.50;;;;;;5069614;28;20626;-76
2022/09/11 03:46:06;;;;;;;14.75;7.65;;;21.60;94.40;;;;;;5068009;28;20260;-78
2022/09/11 03:48:35;;;;;;;15.23;7.50;;;21.60;94.30;;;;;;5063294;28;20674;-76
2022/09/11 03:51:04;;;;;;;17.33;7.75;;;21.50;94.30;;;;;;5061842;28;20334;-77
2022/09/11 03:53:34;;;;;;;12.68;7.10;;;21.60;94.30;;;;;;5070248;28;20234;-76
2022/09/11 03:56:05;;;;;;;11.10;7.05;;;21.50;94.20;;;;;;5068262;28;20241;-79
2022/09/11 03:58:33;;;;;;;11.85;7.50;;;21.50;94.20;;;;;;5065843;28;20268;-77
2022/09/11 04:01:02;;;;;;;13.55;8.38;;;21.50;94.10;;;;;;5064245;28;20216;-78
2022/09/11 04:03:30;;;;;;;14.13;9.23;;;21.40;94.10;;;;;;5066998;28;20198;-77
2022/09/11 04:06:00;;;;;;;20.02;13.52;;;21.40;94.10;;;;;;5066579;28;20191;-77
2022/09/11 04:08:32;;;;;;;24.17;14.25;;;21.40;94.00;;;;;;5064601;28;20196;-77
2022/09/11 04:11:04;;;;;;;22.27;14.40;;;21.30;93.90;;;;;;5064352;28;20552;-77
2022/09/11 04:13:34;;;;;;;21.80;13.57;;;21.30;93.90;;;;;;5068728;28;20218;-77
2022/09/11 04:16:05;;;;;;;19.88;11.80;;;21.30;93.80;;;;;;5061439;28;20619;-77
2022/09/11 04:18:37;;;;;;;20.85;11.00;;;21.30;93.80;;;;;;5067650;28;20194;-77
2022/09/11 04:21:05;;;;;;;16.20;8.88;;;21.30;93.80;;;;;;5070668;28;20248;-76
2022/09/11 04:23:34;;;;;;;13.52;8.10;;;21.30;93.80;;;;;;5061841;28;20243;-77
2022/09/11 04:26:13;;;;;;;14.50;7.47;;;21.30;93.80;;;;;;5069680;28;20195;-78
2022/09/11 04:28:42;;;;;;;13.68;7.60;;;21.20;93.70;;;;;;5065912;28;20275;-77
2022/09/11 04:31:11;;;;;;;10.40;6.75;;;21.20;93.70;;;;;;5060629;28;20702;-78
2022/09/11 04:33:39;;;;;;;15.15;6.97;;;21.20;93.70;;;;;;5057623;28;20993;-77
2022/09/11 04:36:09;;;;;;;12.05;6.55;;;21.20;93.70;;;;;;5064444;28;20655;-77
2022/09/11 04:38:39;;;;;;;12.77;7.03;;;21.20;93.70;;;;;;5062664;28;20234;-78
2022/09/11 04:41:09;;;;;;;11.75;6.88;;;21.10;93.80;;;;;;5060364;28;20229;-77
2022/09/11 04:43:40;;;;;;;12.20;7.20;;;21.10;93.80;;;;;;5059134;28;20277;-78
2022/09/11 04:46:11;;;;;;;12.30;7.18;;;21.10;93.80;;;;;;5066231;28;20701;-76
2022/09/11 04:48:44;;;;;;;9.40;6.78;;;21.10;93.70;;;;;;5058328;28;20290;-79
2022/09/11 04:51:20;;;;;;;13.15;6.93;;;21.10;93.70;;;;;;5067559;28;20206;-78
2022/09/11 04:53:49;;;;;;;11.88;6.95;;;21.10;93.70;;;;;;5065088;28;20369;-76
2022/09/11 04:56:19;;;;;;;11.68;7.28;;;21.10;93.70;;;;;;5066216;28;20191;-79
2022/09/11 04:58:53;;;;;;;9.35;6.32;;;21.10;93.60;;;;;;5056530;28;20236;-76
2022/09/11 05:01:23;;;;;;;13.20;7.28;;;21.10;93.70;;;;;;5067560;28;20190;-77
2022/09/11 05:03:52;;;;;;;12.95;6.20;;;21.10;93.70;;;;;;5063976;28;20252;-76
2022/09/11 05:06:20;;;;;;;14.55;6.90;;;21.10;93.70;;;;;;5062052;28;20210;-76
2022/09/11 05:08:49;;;;;;;10.98;6.53;;;21.10;93.70;;;;;;5063609;28;20775;-77
2022/09/11 05:11:20;;;;;;;9.85;6.90;;;21.10;93.70;;;;;;5065232;28;20250;-78
2022/09/11 05:13:49;;;;;;;10.07;6.50;;;21.10;93.70;;;;;;5064799;28;20195;-79
2022/09/11 05:16:18;;;;;;;12.85;6.63;;;21.10;93.70;;;;;;5069523;28;20285;-76
2022/09/11 05:18:51;;;;;;;10.63;5.90;;;21.10;93.70;;;;;;5068222;28;20211;-77
2022/09/11 05:21:21;;;;;;;11.38;6.13;;;21.10;93.60;;;;;;5059769;28;20225;-76
2022/09/11 05:23:51;;;;;;;12.77;6.88;;;21.10;93.60;;;;;;5069562;28;20312;-75
2022/09/11 05:26:22;;;;;;;12.25;6.80;;;21.10;93.60;;;;;;5068758;28;20245;-75
2022/09/11 05:28:55;;;;;;;9.35;6.13;;;21.10;94.00;;;;;;5066785;28;20250;-78
2022/09/11 05:31:24;;;;;;;12.15;6.32;;;21.20;93.60;;;;;;5067861;28;20218;-76
2022/09/11 05:33:54;;;;;;;15.05;7.20;;;21.20;93.60;;;;;;5064935;28;20532;-76
2022/09/11 05:36:23;;;;;;;11.30;6.63;;;21.20;93.60;;;;;;5063854;28;20190;-78
2022/09/11 05:38:52;;;;;;;9.48;5.68;;;21.30;93.50;;;;;;5068183;28;20190;-78
2022/09/11 05:41:22;;;;;;;10.77;5.88;;;21.20;93.50;;;;;;5068746;28;20190;-77
2022/09/11 05:43:51;;;;;;;12.27;6.15;;;21.30;93.50;;;;;;5059717;28;20655;-76
2022/09/11 05:46:20;;;;;;;12.15;6.32;;;21.30;93.50;;;;;;5058123;28;20221;-76
2022/09/11 05:48:49;;;;;;;12.43;6.90;;;21.40;93.50;;;;;;5066769;28;20194;-77
2022/09/11 05:51:19;;;;;;;10.00;6.15;;;21.40;93.50;;;;;;5066106;28;20221;-77
2022/09/11 05:53:49;;;;;;;11.27;6.43;;;21.50;93.50;;;;;;5065253;28;20611;-77
2022/09/11 05:56:19;;;;;;;12.50;6.60;;;21.50;93.50;;;;;;5067269;28;20248;-76
2022/09/11 05:58:50;;;;;;;15.23;7.15;;;21.50;93.50;;;;;;5071166;28;20226;-78
2022/09/11 06:01:20;;;;;;;12.20;6.47;;;21.60;93.50;;;;;;5068339;28;20187;-76
2022/09/11 06:03:50;;;;;;;10.65;6.00;;;21.60;93.50;;;;;;5061469;28;20231;-76
2022/09/11 06:06:20;;;;;;;10.75;6.00;;;21.70;93.40;;;;;;5065088;28;20218;-78
2022/09/11 06:08:51;;;;;;;11.60;6.65;;;21.70;93.30;;;;;;5062641;28;20655;-77
2022/09/11 06:11:21;;;;;;;11.68;6.13;;;21.70;93.30;;;;;;5070088;28;20541;-77
2022/09/11 06:13:52;;;;;;;9.95;6.07;;;21.80;93.30;;;;;;5074628;28;20263;-78
2022/09/11 06:16:22;;;;;;;8.85;5.60;;;21.80;93.30;;;;;;5070584;28;20267;-77
2022/09/11 06:18:51;;;;;;;10.65;5.72;;;21.80;93.20;;;;;;5069221;28;20212;-78
2022/09/11 06:21:22;;;;;;;11.75;5.65;;;21.90;93.20;;;;;;5072968;28;20225;-78
2022/09/11 06:23:51;;;;;;;11.45;5.72;;;21.90;93.10;;;;;;5068153;28;20229;-76
2022/09/11 06:26:21;;;;;;;11.88;5.57;;;21.90;93.00;;;;;;5072065;28;20248;-75
2022/09/11 06:28:52;;;;;;;10.77;5.40;;;22.00;92.90;;;;;;5069127;28;20257;-76
2022/09/11 06:31:23;;;;;;;11.10;5.50;;;22.00;92.90;;;;;;5068754;28;20210;-81
2022/09/11 06:33:54;;;;;;;8.70;5.47;;;22.10;92.90;;;;;;5061832;28;20190;-77
2022/09/11 06:36:25;;;;;;;13.70;5.65;;;22.10;92.70;;;;;;5070964;28;20183;-77
2022/09/11 06:38:54;;;;;;;8.93;5.00;;;22.10;92.60;;;;;;5073186;28;20202;-77
2022/09/11 06:41:24;;;;;;;8.20;4.57;;;22.10;92.50;;;;;;5073082;28;20244;-77
2022/09/11 06:43:53;;;;;;;9.50;5.20;;;22.20;92.50;;;;;;5068992;28;20268;-78
2022/09/11 06:46:24;;;;;;;10.65;5.22;;;22.30;92.60;;;;;;5070046;28;20194;-79
2022/09/11 06:48:52;;;;;;;7.53;4.93;;;22.30;92.60;;;;;;5071523;28;20245;-77
2022/09/11 06:51:22;;;;;;;9.32;5.03;;;22.40;92.60;;;;;;5072299;28;20725;-78
2022/09/11 06:53:55;;;;;;;11.15;5.18;;;22.50;92.50;;;;;;5072128;28;20650;-77
2022/09/11 06:56:23;;;;;;;8.30;4.38;;;22.50;92.30;;;;;;5062774;28;20717;-76
2022/09/11 06:58:53;;;;;;;9.48;5.00;;;22.60;92.30;;;;;;5073115;28;20671;-75
2022/09/11 07:01:23;;;;;;;7.10;4.88;;;22.70;92.30;;;;;;5069979;28;20231;-75
2022/09/11 07:04:01;;;;;;;8.18;3.95;;;22.70;92.10;;;;;;5069879;28;20198;-77
2022/09/11 07:06:30;;;;;;;8.40;4.32;;;22.80;92.10;;;;;;5065399;28;20195;-74
2022/09/11 07:09:01;;;;;;;8.23;4.40;;;23.00;91.90;;;;;;5071092;28;20209;-74
2022/09/11 07:11:32;;;;;;;8.65;4.53;;;23.00;91.80;;;;;;5070306;28;20217;-74
2022/09/11 07:14:04;;;;;;;5.43;3.88;;;23.10;91.70;;;;;;5071077;28;20240;-75
2022/09/11 07:16:33;;;;;;;9.00;4.15;;;23.20;91.60;;;;;;5066789;28;20264;-74
2022/09/11 07:19:03;;;;;;;5.65;3.75;;;23.30;91.50;;;;;;5071217;28;20186;-75
2022/09/11 07:21:33;;;;;;;8.40;4.68;;;23.30;91.30;;;;;;5066682;28;20233;-75
2022/09/11 07:24:02;;;;;;;8.50;4.95;;;23.40;90.90;;;;;;5068835;28;20226;-75
2022/09/11 07:26:31;;;;;;;6.72;4.10;;;23.50;90.90;;;;;;5072183;28;20271;-75
2022/09/11 07:29:01;;;;;;;7.53;4.07;;;23.50;90.90;;;;;;5067101;28;20537;-76
2022/09/11 07:31:31;;;;;;;7.65;3.92;;;23.50;91.20;;;;;;5071223;28;20549;-76
2022/09/11 07:34:02;;;;;;;5.80;3.50;;;23.60;90.70;;;;;;5065990;28;20218;-75
2022/09/11 07:36:32;;;;;;;7.80;4.05;;;23.70;90.70;;;;;;5071845;28;20191;-74
2022/09/11 07:39:02;;;;;;;6.78;3.95;;;23.70;90.50;;;;;;5069378;28;20655;-75
2022/09/11 07:41:30;;;;;;;5.88;3.08;;;23.80;89.70;;;;;;5061013;28;20260;-74
2022/09/11 07:44:02;;;;;;;7.07;3.60;;;23.80;89.10;;;;;;5070390;28;20807;-77
2022/09/11 07:46:31;;;;;;;4.53;2.65;;;23.90;89.20;;;;;;5069805;28;20195;-74
2022/09/11 07:49:00;;;;;;;5.50;2.63;;;24.00;88.40;;;;;;5070811;28;20194;-75
2022/09/11 07:51:29;;;;;;;6.03;2.90;;;24.00;88.30;;;;;;5069198;28;20195;-75
2022/09/11 07:53:58;;;;;;;7.35;2.83;;;24.10;88.10;;;;;;5073924;28;20248;-75
2022/09/11 07:56:28;;;;;;;9.30;3.47;;;24.10;87.70;;;;;;5069610;28;20190;-75
2022/09/11 07:58:56;;;;;;;3.75;2.05;;;24.20;87.00;;;;;;5070356;28;20273;-76
2022/09/11 08:01:28;;;;;;;3.70;2.38;;;24.30;85.50;;;;;;5068694;28;20195;-74
2022/09/11 08:03:58;;;;;;;3.53;2.22;;;24.30;85.40;;;;;;5070731;28;21564;-74
2022/09/11 08:06:27;;;;;;;5.45;2.38;;;24.40;85.10;;;;;;5070210;28;20281;-74
2022/09/11 08:08:58;;;;;;;5.28;2.60;;;24.50;85.30;;;;;;5071474;28;20198;-75
2022/09/11 08:11:28;;;;;;;8.23;3.20;;;24.50;85.00;;;;;;5066459;28;20202;-75
2022/09/11 08:13:56;;;;;;;3.60;2.45;;;24.60;84.80;;;;;;5065226;28;20674;-75
2022/09/11 08:16:28;;;;;;;4.82;2.63;;;24.70;84.60;;;;;;5068404;28;20190;-75
2022/09/11 08:18:57;;;;;;;3.95;2.53;;;24.70;82.30;;;;;;5069174;28;20202;-75
2022/09/11 08:21:26;;;;;;;2.72;1.80;;;24.80;82.80;;;;;;5071032;28;20361;-75
2022/09/11 08:23:55;;;;;;;3.33;2.08;;;24.80;82.60;;;;;;5072918;28;20202;-75
2022/09/11 08:26:25;;;;;;;4.97;2.28;;;24.80;80.00;;;;;;5064412;28;20198;-76
2022/09/11 08:28:55;;;;;;;6.05;2.20;;;24.90;81.10;;;;;;5065523;28;20779;-75
2022/09/11 08:31:25;;;;;;;3.65;2.40;;;25.00;81.30;;;;;;5067544;28;20190;-76
2022/09/11 08:33:56;;;;;;;5.47;2.13;;;25.00;81.40;;;;;;5057950;28;20211;-76
2022/09/11 08:36:25;;;;;;;4.97;2.20;;;25.10;81.40;;;;;;5068667;28;20221;-75
2022/09/11 08:38:54;;;;;;;6.18;2.60;;;25.10;80.40;;;;;;5068266;28;20300;-74
2022/09/11 08:41:32;;;;;;;4.50;2.50;;;25.20;80.70;;;;;;5071507;28;20247;-77
2022/09/11 08:44:04;;;;;;;3.17;2.10;;;25.30;80.20;;;;;;5066673;28;20553;-76
2022/09/11 08:46:37;;;;;;;5.05;2.30;;;25.30;79.70;;;;;;5066773;28;20217;-75
2022/09/11 08:49:17;;;;;;;4.47;2.05;;;25.40;79.80;;;;;;5063218;28;20187;-75
2022/09/11 08:51:46;;;;;;;4.22;2.42;;;25.40;79.50;;;;;;5068091;28;20239;-75
2022/09/11 08:54:26;;;;;;;5.95;2.33;;;25.40;79.20;;;;;;5070780;28;20211;-75
2022/09/11 08:57:00;;;;;;;3.88;1.98;;;25.50;78.60;;;;;;5067992;28;20575;-74
2022/09/11 08:59:43;;;;;;;6.78;2.17;;;25.50;78.10;;;;;;5070860;28;20186;-75
2022/09/11 09:02:37;;;;;;;3.80;2.10;;;25.60;78.30;;;;;;5063685;28;20191;-76
2022/09/11 09:05:19;;;;;;;5.57;2.00;;;25.60;78.10;;;;;;5067506;28;20182;-76
2022/09/11 09:07:58;;;;;;;5.20;2.30;;;25.70;77.30;;;;;;5067502;28;20658;-76
2022/09/11 09:10:39;;;;;;;6.57;2.20;;;25.70;76.30;;;;;;5069603;28;20216;-76
2022/09/11 09:13:32;;;;;;;4.25;1.95;;;25.70;76.90;;;;;;5064261;28;20732;-75
2022/09/11 09:16:13;;;;;;;8.40;2.00;;;25.80;76.90;;;;;;5066219;28;20232;-76
2022/09/11 09:18:46;;;;;;;3.40;1.95;;;25.80;76.80;;;;;;5068802;28;20182;-76
2022/09/11 09:21:20;;;;;;;2.35;1.73;;;25.80;75.30;;;;;;5060895;28;20191;-76
2022/09/11 09:23:52;;;;;;;3.88;1.67;;;25.90;74.90;;;;;;5065147;28;20463;-76
2022/09/11 09:26:21;;;;;;;2.92;1.70;;;26.00;73.70;;;;;;5064574;28;20182;-75
2022/09/11 09:28:55;;;;;;;3.63;1.65;;;26.00;73.60;;;;;;5067259;28;20254;-75
2022/09/11 09:31:30;;;;;;;2.38;1.20;;;26.10;73.50;;;;;;5064186;28;20230;-76
2022/09/11 09:34:02;;;;;;;1.58;1.10;;;26.10;73.00;;;;;;5063011;28;20248;-76
2022/09/11 09:36:36;;;;;;;4.03;1.50;;;26.10;72.10;;;;;;5069411;28;20526;-76
2022/09/11 09:39:12;;;;;;;3.70;1.98;;;26.20;72.30;;;;;;5068522;28;20211;-75
2022/09/11 09:42:15;;;;;;;2.80;1.63;;;26.20;70.90;;;;;;5063463;28;20276;-76
2022/09/11 09:44:59;;;;;;;3.60;1.60;;;26.20;71.30;;;;;;5064232;28;20912;-75
2022/09/11 09:47:28;;;;;;;3.38;1.52;;;26.30;69.90;;;;;;5065476;28;20788;-76
2022/09/11 09:49:58;;;;;;;1.60;1.23;;;26.30;70.80;;;;;;5067295;28;20236;-76
2022/09/11 09:52:34;;;;;;;4.70;1.70;;;26.40;70.60;;;;;;5066744;28;20194;-75
2022/09/11 09:55:05;;;;;;;3.72;1.10;;;26.40;69.60;;;;;;5064138;28;20319;-75
2022/09/11 09:57:35;;;;;;;2.25;1.25;;;26.50;69.20;;;;;;5070553;28;20572;-75
2022/09/11 10:00:07;;;;;;;2.78;1.27;;;26.50;69.30;;;;;;5065433;28;20186;-75
2022/09/11 10:02:40;;;;;;;6.18;1.58;;;26.60;69.40;;;;;;5060821;28;20247;-75
2022/09/11 10:05:18;;;;;;;2.67;1.75;;;26.60;69.10;;;;;;5065771;28;20194;-76
2022/09/11 10:07:50;;;;;;;3.50;1.50;;;26.60;67.40;;;;;;5067670;28;20248;-76
2022/09/11 10:10:24;;;;;;;6.13;1.75;;;26.70;68.10;;;;;;5067543;28;20195;-75
2022/09/11 10:12:54;;;;;;;3.33;1.58;;;26.70;68.60;;;;;;5057043;28;20222;-77
2022/09/11 10:15:42;;;;;;;4.38;1.63;;;26.80;68.50;;;;;;5059416;28;20192;-75
2022/09/11 10:18:32;;;;;;;3.88;2.17;;;26.80;69.10;;;;;;5068463;28;20198;-75
2022/09/11 10:21:15;;;;;;;2.80;1.52;;;26.80;68.90;;;;;;5066913;28;20229;-76
2022/09/11 10:23:49;;;;;;;6.05;1.70;;;26.90;69.50;;;;;;5069058;28;20651;-75
2022/09/11 10:26:20;;;;;;;3.35;1.77;;;27.00;69.60;;;;;;5066295;28;20595;-76
2022/09/11 10:28:49;;;;;;;4.95;1.90;;;27.00;68.70;;;;;;5064096;28;20250;-76
2022/09/11 10:31:18;;;;;;;7.10;1.85;;;27.00;67.10;;;;;;5067946;28;20277;-76
2022/09/11 10:33:52;;;;;;;4.35;1.67;;;27.10;67.20;;;;;;5065137;28;20576;-76
2022/09/11 10:36:23;;;;;;;3.85;2.10;;;27.10;66.60;;;;;;5066426;28;20217;-75
2022/09/11 10:38:54;;;;;;;4.85;1.95;;;27.20;67.30;;;;;;5068152;28;20595;-75
2022/09/11 10:41:24;;;;;;;5.22;2.70;;;27.20;67.30;;;;;;5070699;28;20253;-75
2022/09/11 10:43:57;;;;;;;4.28;1.75;;;27.30;67.80;;;;;;5061584;28;20608;-76
2022/09/11 10:46:31;;;;;;;6.18;1.95;;;27.30;67.60;;;;;;5061656;28;20299;-75
2022/09/11 10:49:18;;;;;;;3.47;1.92;;;27.30;66.90;;;;;;5058768;28;20222;-75
2022/09/11 10:52:01;;;;;;;3.22;1.55;;;27.30;64.20;;;;;;5064780;28;20781;-75
2022/09/11 10:54:44;;;;;;;2.00;1.15;;;27.40;64.00;;;;;;5066676;28;20712;-75
2022/09/11 10:57:21;;;;;;;2.08;1.42;;;27.50;64.00;;;;;;5063586;28;20214;-75
2022/09/11 11:00:00;;;;;;;4.25;1.60;;;27.60;64.40;;;;;;5061907;28;20259;-75
2022/09/11 11:02:31;;;;;;;2.53;1.48;;;27.60;63.10;;;;;;5070208;28;20256;-75
2022/09/11 11:05:05;;;;;;;2.53;1.40;;;27.70;62.40;;;;;;5065604;28;20218;-75
2022/09/11 11:08:16;;;;;;;2.92;1.50;;;27.70;62.70;;;;;;5072703;28;20292;-75
2022/09/11 11:11:02;;;;;;;5.30;1.50;;;27.80;61.10;;;;;;5069949;28;20240;-76
2022/09/11 11:13:53;;;;;;;1.55;1.20;;;27.80;59.60;;;;;;5069000;28;20571;-75
2022/09/11 11:16:30;;;;;;;1.98;1.35;;;27.90;59.80;;;;;;5073774;28;20186;-75
2022/09/11 11:19:14;;;;;;;2.92;1.30;;;27.90;60.00;;;;;;5062447;28;20288;-75
2022/09/11 11:21:53;;;;;;;1.85;1.23;;;27.90;60.00;;;;;;5071893;28;20225;-74
2022/09/11 11:24:38;;;;;;;4.28;1.60;;;28.00;59.40;;;;;;5072322;28;20210;-74
2022/09/11 11:27:36;;;;;;;2.83;1.13;;;28.10;59.20;;;;;;5066039;28;20253;-75
2022/09/11 11:30:11;;;;;;;2.42;1.50;;;28.10;59.50;;;;;;5070369;28;20272;-74
2022/09/11 11:33:11;;;;;;;4.18;1.10;;;28.20;59.20;;;;;;5067757;28;20277;-75
2022/09/11 11:35:45;;;;;;;3.72;1.30;;;28.20;58.30;;;;;;5069226;28;20707;-75
2022/09/11 11:38:22;;;;;;;1.50;1.10;;;28.30;58.20;;;;;;5060172;28;20186;-75
2022/09/11 11:40:54;;;;;;;4.72;1.30;;;28.30;57.90;;;;;;5069409;28;20226;-75
2022/09/11 11:43:28;;;;;;;2.60;1.48;;;28.30;56.10;;;;;;5069757;28;20286;-75
2022/09/11 11:46:02;;;;;;;1.42;0.95;;;28.40;56.60;;;;;;5066269;28;20222;-75
2022/09/11 11:48:37;;;;;;;1.48;0.90;;;28.40;55.30;;;;;;5056725;28;20711;-75
2022/09/11 11:51:10;;;;;;;1.25;0.80;;;28.40;55.20;;;;;;5063518;28;20225;-76
2022/09/11 11:53:43;;;;;;;2.53;0.95;;;28.50;55.70;;;;;;5072896;28;20237;-74
2022/09/11 11:56:23;;;;;;;2.88;0.88;;;28.40;53.60;;;;;;5070473;28;20692;-75
2022/09/11 11:58:56;;;;;;;1.48;0.77;;;28.40;53.90;;;;;;5067185;28;20198;-75
2022/09/11 12:01:32;;;;;;;1.55;0.98;;;28.40;54.30;;;;;;5069587;28;20226;-75
2022/09/11 12:04:05;;;;;;;2.83;1.38;;;28.40;54.50;;;;;;5065408;28;20285;-75
2022/09/11 12:06:34;;;;;;;2.85;1.40;;;28.30;54.40;;;;;;5064451;28;20306;-75
2022/09/11 12:09:04;;;;;;;2.97;1.08;;;28.30;54.20;;;;;;5067620;28;20194;-76
2022/09/11 12:11:33;;;;;;;2.00;1.27;;;28.30;54.40;;;;;;5068615;28;20623;-75
2022/09/11 12:14:04;;;;;;;4.28;2.45;;;28.20;54.10;;;;;;5069171;28;20256;-75
2022/09/11 12:16:34;;;;;;;1.95;1.10;;;28.30;54.30;;;;;;5062978;28;20658;-75
2022/09/11 12:19:06;;;;;;;4.32;1.10;;;28.30;54.20;;;;;;5065237;28;20194;-75
2022/09/11 12:21:40;;;;;;;3.13;1.27;;;28.30;54.20;;;;;;5065292;28;20187;-75
2022/09/11 12:24:16;;;;;;;2.63;1.35;;;28.40;53.90;;;;;;5069782;28;20221;-75
2022/09/11 12:26:45;;;;;;;3.83;1.30;;;28.40;53.70;;;;;;5069993;28;20553;-75
2022/09/11 12:29:50;;;;;;;4.03;1.63;;;28.50;53.90;;;;;;5049278;28;20609;-74
2022/09/11 12:32:41;;;;;;;1.65;1.00;;;28.60;53.60;;;;;;5049910;28;20242;-75
2022/09/11 12:35:27;;;;;;;0.80;0.50;;;28.60;53.60;;;;;;5047496;28;20450;-75
2022/09/11 12:38:03;;;;;;;3.08;0.60;;;28.70;52.80;;;;;;5046767;28;20195;-75
2022/09/11 12:40:40;;;;;;;2.53;1.00;;;28.80;52.90;;;;;;5040020;28;20253;-76
2022/09/11 12:43:47;;;;;;;0.80;0.50;;;28.80;51.90;;;;;;5049244;28;20582;-75
2022/09/11 12:46:53;;;;;;;1.50;0.73;;;28.90;51.90;;;;;;5041872;28;20230;-76
2022/09/11 12:49:28;;;;;;;2.08;1.10;;;29.00;51.30;;;;;;5040820;28;20214;-73
2022/09/11 12:52:00;;;;;;;2.25;0.82;;;29.00;50.70;;;;;;5048693;28;20233;-74
2022/09/11 12:54:33;;;;;;;1.50;0.93;;;29.10;51.50;;;;;;5046754;28;20620;-76
2022/09/11 12:57:04;;;;;;;1.52;0.63;;;29.20;52.00;;;;;;5045042;28;20245;-75
2022/09/11 12:59:37;;;;;;;7.13;0.70;;;29.20;51.90;;;;;;5046083;28;20913;-74
2022/09/11 13:02:17;;;;;;;2.90;0.90;;;29.30;50.70;;;;;;5046492;28;20222;-75
2022/09/11 13:04:48;;;;;;;6.60;0.50;;;29.40;49.40;;;;;;5046846;28;20227;-76
2022/09/11 13:07:27;;;;;;;4.38;0.77;;;29.50;49.60;;;;;;5048223;28;20210;-75
2022/09/11 13:09:59;;;;;;;1.77;0.55;;;29.50;48.50;;;;;;5049059;28;20282;-75
2022/09/11 13:12:50;;;;;;;2.58;0.82;;;29.60;48.90;;;;;;5045476;28;20247;-75